Time;durP1;ratioP1;P1;durP2;ratioP2;P2;SDS_P1;SDS_P2;PMS_P1;PMS_P2;Temp;Humidity;BMP_temperature;BMP_pressure;BME280_temperature;BME280_humidity;BME280_pressure;Samples;Min_cycle;Max_cycle;Signal;HPM_P1;HPM_P2
2021/12/30 00:00:59;;;;;;;4.10;2.50;;;;;20.10;99945.00;;;;2079537;28;20710;-48
2021/12/30 00:02:00;;;;;;;3.30;3.00;;;;;20.10;99947.00;;;;2078306;28;20230;-47
2021/12/30 00:03:00;;;;;;;3.17;2.78;;;;;20.10;99957.00;;;;2078491;28;20221;-47
2021/12/30 00:04:00;;;;;;;4.97;2.93;;;;;20.10;99966.00;;;;2078294;28;20316;-47
2021/12/30 00:05:01;;;;;;;3.90;2.77;;;;;20.10;99967.00;;;;2078252;28;20563;-48
2021/12/30 00:06:02;;;;;;;3.57;2.70;;;;;20.10;99983.00;;;;2077504;28;20217;-47
2021/12/30 00:07:02;;;;;;;3.50;2.77;;;;;20.10;99989.00;;;;2078685;28;20268;-47
2021/12/30 00:08:02;;;;;;;2.40;2.20;;;;;20.10;99984.00;;;;2085992;28;20247;-47
2021/12/30 00:09:03;;;;;;;3.33;3.00;;;;;20.10;99990.00;;;;2087219;28;20212;-47
2021/12/30 00:10:04;;;;;;;2.83;2.60;;;;;20.20;99996.00;;;;2087769;28;20212;-47
2021/12/30 00:11:05;;;;;;;3.10;2.80;;;;;20.10;99995.00;;;;2086321;28;20217;-47
2021/12/30 00:12:06;;;;;;;2.67;2.45;;;;;20.10;99991.00;;;;2087604;28;21097;-47
2021/12/30 00:13:06;;;;;;;4.10;3.00;;;;;20.10;99995.00;;;;2087653;28;20419;-47
2021/12/30 00:14:07;;;;;;;4.53;3.00;;;;;20.10;99989.00;;;;2087471;28;21011;-47
2021/12/30 00:15:07;;;;;;;3.53;2.83;;;;;20.10;99990.00;;;;2085448;28;21150;-47
2021/12/30 00:16:08;;;;;;;3.60;2.97;;;;;20.10;99989.00;;;;2087526;28;20224;-47
2021/12/30 00:17:08;;;;;;;2.87;2.63;;;;;20.10;99994.00;;;;2087734;28;20220;-47
2021/12/30 00:18:09;;;;;;;3.60;3.23;;;;;20.10;99985.00;;;;2088157;28;20283;-47
2021/12/30 00:19:09;;;;;;;3.40;2.63;;;;;20.10;99983.00;;;;2087051;28;20331;-47
2021/12/30 00:20:10;;;;;;;3.40;2.63;;;;;20.10;99982.00;;;;2084447;28;20228;-47
2021/12/30 00:21:11;;;;;;;3.00;2.67;;;;;20.00;99988.00;;;;2086487;28;20212;-47
2021/12/30 00:22:11;;;;;;;4.20;2.90;;;;;20.10;99994.00;;;;2087617;28;20598;-47
2021/12/30 00:23:12;;;;;;;2.63;2.30;;;;;20.10;99996.00;;;;2087842;28;20213;-48
2021/12/30 00:24:12;;;;;;;2.60;2.30;;;;;20.10;100002.00;;;;2087342;28;20209;-47
2021/12/30 00:25:12;;;;;;;3.67;2.50;;;;;20.10;99998.00;;;;2084187;28;20215;-47
2021/12/30 00:26:13;;;;;;;4.10;3.07;;;;;20.10;100000.00;;;;2087395;28;20359;-47
2021/12/30 00:27:13;;;;;;;3.07;2.50;;;;;20.10;99998.00;;;;2087638;28;20235;-47
2021/12/30 00:28:16;;;;;;;3.07;2.77;;;;;20.10;100000.00;;;;2081051;28;20221;-47
2021/12/30 00:29:17;;;;;;;4.30;3.00;;;;;20.10;99994.00;;;;2079461;28;20712;-47
2021/12/30 00:30:17;;;;;;;3.70;2.77;;;;;20.10;99989.00;;;;2075326;28;20225;-47
2021/12/30 00:31:17;;;;;;;4.23;2.93;;;;;20.10;99991.00;;;;2079221;28;20214;-47
2021/12/30 00:32:18;;;;;;;2.70;2.50;;;;;20.10;99996.00;;;;2079355;28;20384;-47
2021/12/30 00:33:18;;;;;;;3.57;3.13;;;;;20.10;99992.00;;;;2077670;28;20271;-48
2021/12/30 00:34:18;;;;;;;3.67;2.87;;;;;20.10;99994.00;;;;2079008;28;21032;-47
2021/12/30 00:35:19;;;;;;;3.90;3.30;;;;;20.10;100007.00;;;;2085633;28;20244;-47
2021/12/30 00:36:19;;;;;;;2.90;2.47;;;;;20.10;100007.00;;;;2079327;28;20217;-47
2021/12/30 00:37:19;;;;;;;4.13;2.57;;;;;20.10;100011.00;;;;2079681;28;20236;-47
2021/12/30 00:38:20;;;;;;;3.20;2.47;;;;;20.10;100006.00;;;;2079803;28;20205;-47
2021/12/30 00:39:20;;;;;;;3.60;2.67;;;;;20.10;100008.00;;;;2086582;28;20209;-47
2021/12/30 00:40:21;;;;;;;2.63;2.43;;;;;20.10;100014.00;;;;2086708;28;20572;-47
2021/12/30 00:41:22;;;;;;;3.33;3.00;;;;;20.10;100012.00;;;;2086987;28;20220;-47
2021/12/30 00:42:22;;;;;;;3.00;2.67;;;;;20.10;100016.00;;;;2081757;28;20209;-47
2021/12/30 00:43:22;;;;;;;2.90;2.60;;;;;20.10;100011.00;;;;2079388;28;20551;-47
2021/12/30 00:44:23;;;;;;;2.50;2.30;;;;;20.10;100008.00;;;;2079265;28;20755;-47
2021/12/30 00:45:23;;;;;;;3.13;2.63;;;;;20.10;100004.00;;;;2077238;28;20268;-47
2021/12/30 00:46:23;;;;;;;4.53;2.70;;;;;20.10;100012.00;;;;2078342;28;20430;-49
2021/12/30 00:47:24;;;;;;;3.40;2.77;;;;;20.10;100005.00;;;;2084456;28;20228;-51
2021/12/30 00:48:25;;;;;;;3.50;2.90;;;;;20.10;100002.00;;;;2084392;28;20712;-51
2021/12/30 00:49:28;;;;;;;2.78;2.33;;;;;20.10;99996.00;;;;2079281;28;20267;-48
2021/12/30 00:50:30;;;;;;;3.45;2.85;;;;;20.10;99994.00;;;;2078698;28;20246;-47
2021/12/30 00:51:31;;;;;;;4.03;2.63;;;;;20.10;100002.00;;;;2079764;28;20205;-48
2021/12/30 00:52:31;;;;;;;4.90;2.63;;;;;20.10;100002.00;;;;2079711;28;20236;-48
2021/12/30 00:53:31;;;;;;;5.20;2.93;;;;;20.10;100001.00;;;;2079549;28;20218;-48
2021/12/30 00:54:32;;;;;;;3.70;2.67;;;;;20.10;100002.00;;;;2084212;28;20232;-47
2021/12/30 00:55:32;;;;;;;3.40;2.43;;;;;20.10;100005.00;;;;2081240;28;20588;-48
2021/12/30 00:56:33;;;;;;;4.17;2.70;;;;;20.10;100013.00;;;;2079528;28;20209;-47
2021/12/30 00:57:33;;;;;;;3.80;2.60;;;;;20.10;100023.00;;;;2086744;28;20209;-47
2021/12/30 00:58:33;;;;;;;3.70;2.93;;;;;20.10;100029.00;;;;2087941;28;20208;-47
2021/12/30 00:59:34;;;;;;;3.00;2.70;;;;;20.10;100031.00;;;;2087896;28;20744;-47
2021/12/30 01:00:35;;;;;;;3.30;2.50;;;;;20.10;99996.00;;;;2085598;28;20947;-47
2021/12/30 01:01:36;;;;;;;2.80;2.50;;;;;20.10;100040.00;;;;2087096;28;20220;-47
2021/12/30 01:02:36;;;;;;;3.20;2.70;;;;;20.10;100038.00;;;;2087123;28;20859;-47
2021/12/30 01:03:36;;;;;;;3.80;2.57;;;;;20.10;100034.00;;;;2087788;28;20791;-47
2021/12/30 01:04:37;;;;;;;3.80;2.50;;;;;20.10;100038.00;;;;2087637;28;20209;-47
2021/12/30 01:05:37;;;;;;;3.10;2.80;;;;;20.10;100034.00;;;;2087782;28;20247;-47
2021/12/30 01:06:37;;;;;;;2.87;2.23;;;;;20.10;100039.00;;;;2087865;28;20270;-47
2021/12/30 01:07:38;;;;;;;3.87;2.90;;;;;20.10;100041.00;;;;2087751;28;20223;-47
2021/12/30 01:08:38;;;;;;;4.27;2.90;;;;;20.10;100034.00;;;;2087739;28;20221;-48
2021/12/30 01:09:39;;;;;;;2.90;2.67;;;;;20.10;100027.00;;;;2087608;28;20217;-48
2021/12/30 01:10:40;;;;;;;2.97;2.70;;;;;20.10;100039.00;;;;2086718;28;20225;-47
2021/12/30 01:11:40;;;;;;;4.07;2.70;;;;;20.10;100033.00;;;;2087359;28;20588;-48
2021/12/30 01:12:41;;;;;;;3.13;2.57;;;;;20.10;100029.00;;;;2086896;28;20299;-47
2021/12/30 01:13:44;;;;;;;3.60;2.70;;;;;20.10;100040.00;;;;2086954;28;20209;-47
2021/12/30 01:14:47;;;;;;;3.03;2.42;;;;;20.10;100039.00;;;;2086510;28;20266;-47
2021/12/30 01:16:02;;;;;;;3.15;2.55;;;;;20.10;100036.00;;;;2087712;28;20404;-47
2021/12/30 01:17:15;;;;;;;3.30;2.58;;;;;20.10;100035.00;;;;2087349;28;20236;-47
2021/12/30 01:18:40;;;;;;;3.95;2.60;;;;;20.10;100028.00;;;;2087665;28;20223;-47
2021/12/30 01:19:42;;;;;;;2.67;2.40;;;;;20.10;100032.00;;;;2087032;28;20299;-47
2021/12/30 01:20:43;;;;;;;3.00;2.22;;;;;20.10;100038.00;;;;2086097;28;20588;-47
2021/12/30 01:21:44;;;;;;;4.53;2.53;;;;;20.10;100042.00;;;;2087756;28;20220;-48
2021/12/30 01:22:47;;;;;;;3.55;2.75;;;;;20.10;100049.00;;;;2087459;28;20217;-47
2021/12/30 01:23:47;;;;;;;3.55;2.45;;;;;20.10;100042.00;;;;2086673;28;20589;-47
2021/12/30 01:24:47;;;;;;;3.23;2.57;;;;;20.00;100046.00;;;;2087588;28;20229;-47
2021/12/30 01:25:48;;;;;;;3.33;2.67;;;;;20.10;100043.00;;;;2087511;28;20320;-47
2021/12/30 01:26:48;;;;;;;3.17;2.50;;;;;20.10;100050.00;;;;2086770;28;21665;-47
2021/12/30 01:27:48;;;;;;;3.10;2.40;;;;;20.00;100054.00;;;;2086785;28;20228;-47
2021/12/30 01:28:49;;;;;;;3.83;2.90;;;;;20.10;100062.00;;;;2087744;28;20229;-47
2021/12/30 01:29:49;;;;;;;3.20;2.47;;;;;20.10;100052.00;;;;2087610;28;20225;-47
2021/12/30 01:30:50;;;;;;;4.53;2.60;;;;;20.00;100051.00;;;;2086620;28;20243;-47
2021/12/30 01:31:51;;;;;;;2.80;2.30;;;;;20.10;100052.00;;;;2087005;28;20217;-47
2021/12/30 01:32:51;;;;;;;3.50;2.83;;;;;20.10;100054.00;;;;2087618;28;20623;-47
2021/12/30 01:33:51;;;;;;;3.50;2.40;;;;;20.10;100058.00;;;;2087435;28;20898;-47
2021/12/30 01:34:52;;;;;;;4.20;2.77;;;;;20.10;100056.00;;;;2087487;28;20605;-47
2021/12/30 01:35:52;;;;;;;3.57;2.30;;;;;20.10;100066.00;;;;2087511;28;20274;-47
2021/12/30 01:36:54;;;;;;;3.47;2.67;;;;;20.10;100066.00;;;;2083492;28;20210;-47
2021/12/30 01:37:58;;;;;;;3.47;2.35;;;;;20.10;100059.00;;;;2077446;28;20555;-47
2021/12/30 01:38:58;;;;;;;2.80;2.25;;;;;20.10;100063.00;;;;2078973;28;20301;-47
2021/12/30 01:39:58;;;;;;;4.50;2.87;;;;;20.10;100073.00;;;;2078947;28;20216;-47
2021/12/30 01:41:01;;;;;;;2.93;2.33;;;;;20.10;100069.00;;;;2078305;28;20573;-47
2021/12/30 01:42:01;;;;;;;3.33;2.28;;;;;20.10;100060.00;;;;2078438;28;20955;-48
2021/12/30 01:43:02;;;;;;;3.50;2.57;;;;;20.10;100057.00;;;;2079156;28;20275;-49
2021/12/30 01:44:02;;;;;;;3.33;2.50;;;;;20.00;100062.00;;;;2079231;28;20224;-49
2021/12/30 01:45:04;;;;;;;4.30;2.80;;;;;20.00;100075.00;;;;2079300;28;20765;-48
2021/12/30 01:46:06;;;;;;;3.08;2.17;;;;;20.00;100075.00;;;;2083976;28;20209;-48
2021/12/30 01:47:06;;;;;;;3.65;2.47;;;;;20.00;100079.00;;;;2087257;28;20247;-48
2021/12/30 01:48:06;;;;;;;2.93;2.63;;;;;20.00;100068.00;;;;2087202;28;20588;-47
2021/12/30 01:49:07;;;;;;;2.90;2.07;;;;;20.10;100075.00;;;;2087513;28;20266;-48
2021/12/30 01:50:08;;;;;;;3.57;2.13;;;;;20.10;100088.00;;;;2078498;28;20327;-47
2021/12/30 01:51:08;;;;;;;2.67;2.17;;;;;20.10;100087.00;;;;2077556;28;20464;-48
2021/12/30 01:52:09;;;;;;;3.67;2.50;;;;;20.00;100080.00;;;;2079316;28;20495;-48
2021/12/30 01:53:09;;;;;;;6.93;2.47;;;;;20.10;100090.00;;;;2079026;28;20252;-47
2021/12/30 01:54:10;;;;;;;2.50;2.27;;;;;20.00;100098.00;;;;2082350;28;20220;-47
2021/12/30 01:55:11;;;;;;;3.60;2.40;;;;;20.00;100096.00;;;;2086584;28;20213;-47
2021/12/30 01:56:11;;;;;;;4.00;2.27;;;;;20.00;100088.00;;;;2079141;28;20213;-47
2021/12/30 01:57:11;;;;;;;2.60;2.13;;;;;20.00;100086.00;;;;2079184;28;20210;-47
2021/12/30 01:58:12;;;;;;;3.20;2.33;;;;;20.00;100082.00;;;;2078627;28;20593;-48
2021/12/30 01:59:12;;;;;;;2.90;2.30;;;;;20.00;100084.00;;;;2078563;28;20275;-47
2021/12/30 02:00:14;;;;;;;3.40;2.47;;;;;20.00;100084.00;;;;2078490;28;20221;-47
2021/12/30 02:01:14;;;;;;;2.38;2.00;;;;;20.00;100084.00;;;;2078297;28;20693;-47
2021/12/30 02:02:15;;;;;;;4.50;2.57;;;;;20.10;100077.00;;;;2078608;28;20272;-47
2021/12/30 02:03:15;;;;;;;3.77;2.80;;;;;20.00;100073.00;;;;2078033;28;20210;-47
2021/12/30 02:04:16;;;;;;;3.53;2.33;;;;;20.10;100084.00;;;;2077712;28;20206;-47
2021/12/30 02:05:16;;;;;;;3.70;2.57;;;;;20.10;100078.00;;;;2078568;28;20217;-48
2021/12/30 02:06:16;;;;;;;3.40;2.60;;;;;20.10;100081.00;;;;2078074;28;20210;-47
2021/12/30 02:07:17;;;;;;;3.33;2.63;;;;;20.00;100074.00;;;;2077970;28;20900;-47
2021/12/30 02:08:18;;;;;;;3.15;2.30;;;;;20.00;100070.00;;;;2078319;28;20263;-47
2021/12/30 02:09:20;;;;;;;2.60;2.40;;;;;20.00;100073.00;;;;2079200;28;20213;-47
2021/12/30 02:10:20;;;;;;;3.08;2.17;;;;;20.10;100066.00;;;;2086223;28;20995;-47
2021/12/30 02:11:21;;;;;;;3.20;2.20;;;;;20.00;100075.00;;;;2086493;28;20351;-47
2021/12/30 02:12:21;;;;;;;2.97;2.20;;;;;20.10;100076.00;;;;2086828;28;20212;-47
2021/12/30 02:13:22;;;;;;;3.33;2.17;;;;;20.10;100079.00;;;;2086702;28;20213;-47
2021/12/30 02:14:22;;;;;;;2.93;2.27;;;;;20.00;100074.00;;;;2087184;28;20240;-47
2021/12/30 02:15:22;;;;;;;3.00;1.90;;;;;20.10;100078.00;;;;2086699;28;20209;-47
2021/12/30 02:16:23;;;;;;;3.30;2.10;;;;;20.00;100073.00;;;;2087476;28;20216;-47
2021/12/30 02:17:25;;;;;;;2.87;2.10;;;;;20.00;100064.00;;;;2087295;28;20259;-47
2021/12/30 02:18:25;;;;;;;3.22;2.67;;;;;20.00;100061.00;;;;2087159;28;20710;-47
2021/12/30 02:19:25;;;;;;;4.30;2.40;;;;;20.00;100060.00;;;;2087292;28;20212;-47
2021/12/30 02:20:47;;;;;;;3.87;2.40;;;;;20.00;100070.00;;;;2080547;28;20210;-48
2021/12/30 02:21:47;;;;;;;2.15;1.65;;;;;20.00;100077.00;;;;2072217;28;20222;-47
2021/12/30 02:22:47;;;;;;;3.07;2.10;;;;;20.00;100070.00;;;;2078715;28;20297;-47
2021/12/30 02:23:48;;;;;;;2.93;1.97;;;;;20.00;100075.00;;;;2079046;28;20336;-47
2021/12/30 02:24:49;;;;;;;2.53;2.03;;;;;20.00;100061.00;;;;2078896;28;20217;-48
2021/12/30 02:25:52;;;;;;;3.53;2.35;;;;;20.00;100073.00;;;;2078812;28;20217;-47
2021/12/30 02:26:52;;;;;;;4.18;2.20;;;;;20.00;100070.00;;;;2079024;28;20249;-47
2021/12/30 02:27:53;;;;;;;3.97;2.30;;;;;20.00;100062.00;;;;2078210;28;20276;-47
2021/12/30 02:28:53;;;;;;;3.77;2.37;;;;;20.00;100063.00;;;;2078344;28;20286;-47
2021/12/30 02:29:53;;;;;;;2.53;2.07;;;;;20.00;100070.00;;;;2078892;28;20624;-47
2021/12/30 02:30:55;;;;;;;3.60;2.80;;;;;20.00;100065.00;;;;2077996;28;20683;-47
2021/12/30 02:31:55;;;;;;;3.72;2.45;;;;;20.00;100068.00;;;;2078385;28;20209;-47
2021/12/30 02:32:55;;;;;;;2.97;2.20;;;;;20.00;100073.00;;;;2078883;28;20217;-47
2021/12/30 02:33:56;;;;;;;3.40;2.23;;;;;20.00;100078.00;;;;2078930;28;20211;-47
2021/12/30 02:34:56;;;;;;;3.17;2.17;;;;;20.00;100075.00;;;;2078398;28;20206;-47
2021/12/30 02:35:56;;;;;;;4.23;2.70;;;;;20.00;100067.00;;;;2078108;28;20209;-47
2021/12/30 02:36:57;;;;;;;3.10;2.00;;;;;20.00;100077.00;;;;2078693;28;20213;-48
2021/12/30 02:37:57;;;;;;;3.90;2.50;;;;;20.00;100076.00;;;;2078230;28;20217;-47
2021/12/30 02:38:58;;;;;;;2.70;2.20;;;;;20.00;100079.00;;;;2078736;28;20725;-47
2021/12/30 02:39:59;;;;;;;3.13;2.20;;;;;20.00;100079.00;;;;2077908;28;20213;-47
2021/12/30 02:40:59;;;;;;;2.70;2.00;;;;;20.00;100077.00;;;;2076685;28;20451;-47
2021/12/30 02:42:00;;;;;;;4.13;2.20;;;;;20.00;100066.00;;;;2078415;28;20225;-47
2021/12/30 02:43:00;;;;;;;2.77;2.27;;;;;20.00;100079.00;;;;2077875;28;20440;-47
2021/12/30 02:44:01;;;;;;;2.70;2.00;;;;;20.00;100076.00;;;;2077760;28;20306;-47
2021/12/30 02:45:01;;;;;;;3.00;2.10;;;;;20.00;100076.00;;;;2078306;28;20251;-47
2021/12/30 02:46:02;;;;;;;3.67;2.40;;;;;20.00;100067.00;;;;2078133;28;20466;-47
2021/12/30 02:47:02;;;;;;;2.60;1.97;;;;;20.00;100066.00;;;;2078336;28;20218;-47
2021/12/30 02:48:03;;;;;;;2.43;1.53;;;;;20.00;100069.00;;;;2078347;28;20605;-47
2021/12/30 02:49:03;;;;;;;2.50;2.10;;;;;20.00;100076.00;;;;2078305;28;20213;-48
2021/12/30 02:50:04;;;;;;;4.10;2.30;;;;;20.00;100079.00;;;;2078334;28;20225;-47
2021/12/30 02:51:05;;;;;;;2.43;1.93;;;;;20.00;100077.00;;;;2077223;28;20221;-47
2021/12/30 02:52:06;;;;;;;3.38;2.00;;;;;20.00;100085.00;;;;2078834;28;20304;-47
2021/12/30 02:53:06;;;;;;;4.37;2.40;;;;;20.00;100078.00;;;;2078422;28;20218;-47
2021/12/30 02:54:06;;;;;;;3.17;1.93;;;;;20.00;100073.00;;;;2078779;28;20218;-48
2021/12/30 02:55:07;;;;;;;2.20;1.90;;;;;20.00;100088.00;;;;2078735;28;20307;-48
2021/12/30 02:56:07;;;;;;;3.33;2.40;;;;;20.00;100090.00;;;;2078789;28;20231;-48
2021/12/30 02:57:08;;;;;;;4.40;2.00;;;;;20.00;100090.00;;;;2078662;28;20210;-47
2021/12/30 02:58:09;;;;;;;4.30;2.33;;;;;20.00;100100.00;;;;2083158;28;20703;-47
2021/12/30 02:59:09;;;;;;;3.20;1.90;;;;;20.00;100089.00;;;;2086972;28;20213;-47
2021/12/30 03:00:10;;;;;;;2.73;2.10;;;;;20.00;100080.00;;;;2086960;28;20232;-47
2021/12/30 03:01:15;;;;;;;3.07;1.90;;;;;20.00;100078.00;;;;2086008;28;20220;-47
2021/12/30 03:02:16;;;;;;;4.32;2.63;;;;;20.00;100073.00;;;;2086841;28;20730;-48
2021/12/30 03:03:20;;;;;;;3.93;2.50;;;;;20.00;100065.00;;;;2086814;28;20227;-48
2021/12/30 03:04:20;;;;;;;2.70;1.90;;;;;20.00;100069.00;;;;2086818;28;20212;-48
2021/12/30 03:05:22;;;;;;;5.27;2.30;;;;;20.00;100064.00;;;;2086707;28;20732;-48
2021/12/30 03:06:23;;;;;;;3.10;1.90;;;;;20.00;100066.00;;;;2086205;28;20712;-47
2021/12/30 03:07:23;;;;;;;3.30;2.30;;;;;20.00;100090.00;;;;2086570;28;20217;-48
2021/12/30 03:08:23;;;;;;;3.27;1.93;;;;;20.00;100095.00;;;;2086437;28;20212;-47
2021/12/30 03:09:24;;;;;;;2.37;2.03;;;;;20.00;100094.00;;;;2086980;28;20287;-48
2021/12/30 03:10:25;;;;;;;2.97;1.77;;;;;20.00;100095.00;;;;2086226;28;20237;-47
2021/12/30 03:11:25;;;;;;;2.35;2.15;;;;;19.90;100094.00;;;;2082131;28;20209;-48
2021/12/30 03:12:26;;;;;;;3.80;2.10;;;;;20.00;100089.00;;;;2078790;28;20209;-47
2021/12/30 03:13:31;;;;;;;2.90;2.00;;;;;20.00;100083.00;;;;2078736;28;20225;-47
2021/12/30 03:14:31;;;;;;;3.95;2.63;;;;;20.00;100095.00;;;;2078355;28;20247;-47
2021/12/30 03:15:32;;;;;;;2.97;2.00;;;;;20.00;100104.00;;;;2078411;28;20221;-47
2021/12/30 03:16:35;;;;;;;2.63;2.03;;;;;20.00;100100.00;;;;2078110;28;20736;-47
2021/12/30 03:17:37;;;;;;;2.05;1.60;;;;;20.00;100104.00;;;;2078152;28;20213;-47
2021/12/30 03:18:38;;;;;;;3.08;1.75;;;;;20.00;100106.00;;;;2086137;28;20213;-47
2021/12/30 03:19:39;;;;;;;3.40;2.13;;;;;20.00;100096.00;;;;2081175;28;20217;-47
2021/12/30 03:20:39;;;;;;;2.17;1.73;;;;;20.00;100106.00;;;;2076622;28;20213;-47
2021/12/30 03:21:40;;;;;;;3.17;2.57;;;;;20.00;100101.00;;;;2077305;28;20308;-47
2021/12/30 03:22:40;;;;;;;3.30;1.90;;;;;20.00;100103.00;;;;2077368;28;20213;-47
2021/12/30 03:23:41;;;;;;;3.17;1.77;;;;;20.00;100097.00;;;;2077607;28;20209;-47
2021/12/30 03:24:41;;;;;;;6.00;2.10;;;;;20.00;100095.00;;;;2078043;28;20237;-47
2021/12/30 03:25:41;;;;;;;3.10;1.60;;;;;20.00;100099.00;;;;2078239;28;20293;-47
2021/12/30 03:26:42;;;;;;;3.80;2.03;;;;;20.00;100105.00;;;;2081160;28;20280;-47
2021/12/30 03:27:42;;;;;;;3.73;2.10;;;;;20.00;100096.00;;;;2086500;28;20223;-47
2021/12/30 03:28:43;;;;;;;4.23;2.30;;;;;20.00;100100.00;;;;2078716;28;20209;-47
2021/12/30 03:29:43;;;;;;;3.00;1.77;;;;;20.00;100109.00;;;;2080152;28;20238;-47
2021/12/30 03:30:44;;;;;;;2.60;1.80;;;;;20.00;100091.00;;;;2085640;28;20221;-48
2021/12/30 03:31:44;;;;;;;3.03;1.93;;;;;20.00;100091.00;;;;2087060;28;20205;-47
2021/12/30 03:32:44;;;;;;;2.80;1.83;;;;;20.00;100099.00;;;;2086077;28;20283;-47
2021/12/30 03:33:45;;;;;;;3.40;1.90;;;;;20.00;100102.00;;;;2085969;28;20212;-47
2021/12/30 03:34:45;;;;;;;3.00;2.30;;;;;20.00;100100.00;;;;2086629;28;20678;-47
2021/12/30 03:35:46;;;;;;;2.83;1.87;;;;;20.00;100100.00;;;;2086836;28;20219;-47
2021/12/30 03:36:46;;;;;;;2.00;1.67;;;;;20.00;100100.00;;;;2086666;28;20213;-47
2021/12/30 03:37:47;;;;;;;2.77;1.90;;;;;20.00;100098.00;;;;2086456;28;20455;-47
2021/12/30 03:38:49;;;;;;;3.23;1.87;;;;;20.00;100099.00;;;;2086836;28;20236;-48
2021/12/30 03:39:49;;;;;;;3.17;2.00;;;;;20.00;100099.00;;;;2086621;28;20225;-48
2021/12/30 03:40:50;;;;;;;2.70;1.70;;;;;20.00;100094.00;;;;2085692;28;20220;-48
2021/12/30 03:41:50;;;;;;;3.97;1.70;;;;;20.00;100089.00;;;;2086428;28;20236;-47
2021/12/30 03:42:50;;;;;;;2.60;1.50;;;;;20.00;100081.00;;;;2086592;28;20215;-47
2021/12/30 03:43:51;;;;;;;3.43;1.50;;;;;20.00;100090.00;;;;2087921;28;20208;-47
2021/12/30 03:44:56;;;;;;;3.20;1.87;;;;;19.90;100075.00;;;;2088235;28;20212;-48
2021/12/30 03:45:56;;;;;;;2.83;1.80;;;;;20.00;100092.00;;;;2088381;28;20215;-48
2021/12/30 03:46:56;;;;;;;2.90;1.80;;;;;20.00;100088.00;;;;2088477;28;20220;-48
2021/12/30 03:47:57;;;;;;;3.57;1.80;;;;;20.00;100086.00;;;;2088309;28;20578;-47
2021/12/30 03:48:58;;;;;;;2.97;1.73;;;;;19.80;100091.00;;;;2088495;28;20347;-48
2021/12/30 03:49:59;;;;;;;2.05;1.23;;;;;19.90;100104.00;;;;2088462;28;20252;-48
2021/12/30 03:51:04;;;;;;;5.40;2.30;;;;;20.00;100102.00;;;;2086814;28;20713;-48
2021/12/30 03:52:05;;;;;;;2.25;1.50;;;;;20.00;100106.00;;;;2087423;28;20240;-47
2021/12/30 03:53:06;;;;;;;3.20;1.77;;;;;19.90;100097.00;;;;2087748;28;20217;-48
2021/12/30 03:54:07;;;;;;;2.75;1.60;;;;;20.00;100107.00;;;;2081542;28;20213;-47
2021/12/30 03:55:08;;;;;;;3.67;2.20;;;;;20.00;100108.00;;;;2077868;28;20219;-47
2021/12/30 03:56:09;;;;;;;2.93;1.80;;;;;20.00;100106.00;;;;2080033;28;20479;-47
2021/12/30 03:57:09;;;;;;;3.22;1.77;;;;;19.90;100107.00;;;;2080017;28;20213;-47
2021/12/30 03:58:10;;;;;;;2.57;1.60;;;;;20.00;100111.00;;;;2080166;28;20887;-47
2021/12/30 03:59:10;;;;;;;3.50;1.87;;;;;19.90;100099.00;;;;2080060;28;20221;-47
2021/12/30 04:00:11;;;;;;;2.57;1.60;;;;;19.90;100100.00;;;;2079356;28;20799;-47
2021/12/30 04:01:14;;;;;;;2.80;1.80;;;;;19.90;100101.00;;;;2078450;28;20612;-47
2021/12/30 04:02:14;;;;;;;3.47;2.15;;;;;20.00;100108.00;;;;2080054;28;20244;-47
2021/12/30 04:03:14;;;;;;;3.23;1.63;;;;;19.90;100102.00;;;;2070870;28;20651;-47
2021/12/30 04:04:15;;;;;;;2.67;1.63;;;;;19.80;100115.00;;;;2071251;28;20230;-47
2021/12/30 04:05:15;;;;;;;2.33;1.60;;;;;20.00;100116.00;;;;2079242;28;20217;-48
2021/12/30 04:06:15;;;;;;;2.70;1.90;;;;;20.00;100110.00;;;;2076800;28;20225;-47
2021/12/30 04:07:16;;;;;;;2.73;1.80;;;;;20.00;100100.00;;;;2080117;28;20250;-47
2021/12/30 04:08:16;;;;;;;3.53;1.83;;;;;20.00;100112.00;;;;2079983;28;20220;-47
2021/12/30 04:09:18;;;;;;;2.60;1.73;;;;;19.90;100113.00;;;;2079989;28;20217;-47
2021/12/30 04:10:21;;;;;;;2.80;1.80;;;;;19.90;100112.00;;;;2079610;28;20628;-47
2021/12/30 04:11:23;;;;;;;2.08;1.55;;;;;19.90;100106.00;;;;2079361;28;20296;-47
2021/12/30 04:12:24;;;;;;;3.55;2.15;;;;;19.90;100109.00;;;;2079493;28;20209;-47
2021/12/30 04:13:24;;;;;;;2.60;1.50;;;;;19.90;100107.00;;;;2079252;28;20648;-48
2021/12/30 04:14:26;;;;;;;3.90;1.93;;;;;19.90;100123.00;;;;2071111;28;20210;-48
2021/12/30 04:15:26;;;;;;;3.05;2.03;;;;;19.90;100104.00;;;;2079275;28;20275;-48
2021/12/30 04:16:27;;;;;;;2.87;1.60;;;;;19.90;100117.00;;;;2080028;28;20205;-48
2021/12/30 04:17:27;;;;;;;2.93;2.00;;;;;19.90;100101.00;;;;2079785;28;20210;-47
2021/12/30 04:18:27;;;;;;;3.20;1.90;;;;;19.90;100103.00;;;;2084496;28;20286;-48
2021/12/30 04:19:27;;;;;;;3.13;1.77;;;;;19.90;100100.00;;;;2088012;28;20288;-47
2021/12/30 04:20:28;;;;;;;3.27;1.73;;;;;19.90;100108.00;;;;2087036;28;20216;-47
2021/12/30 04:21:28;;;;;;;2.90;2.10;;;;;19.80;100102.00;;;;2088158;28;20303;-47
2021/12/30 04:22:29;;;;;;;4.60;2.00;;;;;19.90;100115.00;;;;2087111;28;20221;-48
2021/12/30 04:23:29;;;;;;;2.00;1.50;;;;;19.90;100115.00;;;;2087494;28;20224;-48
2021/12/30 04:24:29;;;;;;;2.27;1.40;;;;;19.90;100122.00;;;;2088065;28;20205;-47
2021/12/30 04:25:30;;;;;;;3.50;2.13;;;;;19.90;100122.00;;;;2087937;28;20220;-48
2021/12/30 04:26:30;;;;;;;2.03;1.60;;;;;19.90;100122.00;;;;2088264;28;20212;-47
2021/12/30 04:27:30;;;;;;;2.50;1.50;;;;;19.90;100127.00;;;;2088080;28;20205;-47
2021/12/30 04:28:31;;;;;;;3.30;1.50;;;;;19.90;100125.00;;;;2088325;28;20201;-47
2021/12/30 04:29:31;;;;;;;2.40;1.70;;;;;19.90;100131.00;;;;2086606;28;20216;-47
2021/12/30 04:30:31;;;;;;;2.87;1.77;;;;;19.90;100124.00;;;;2087114;28;20296;-47
2021/12/30 04:31:32;;;;;;;2.60;1.30;;;;;19.90;100118.00;;;;2088337;28;20231;-47
2021/12/30 04:32:32;;;;;;;2.67;1.53;;;;;19.90;100120.00;;;;2088040;28;20220;-47
2021/12/30 04:33:33;;;;;;;2.10;1.60;;;;;19.90;100112.00;;;;2088148;28;20217;-48
2021/12/30 04:34:33;;;;;;;2.90;1.50;;;;;19.90;100119.00;;;;2087799;28;20640;-48
2021/12/30 04:35:33;;;;;;;3.67;1.60;;;;;19.90;100114.00;;;;2087507;28;20342;-47
2021/12/30 04:36:34;;;;;;;3.93;1.70;;;;;19.90;100115.00;;;;2088170;28;20223;-47
2021/12/30 04:37:34;;;;;;;2.80;2.00;;;;;19.90;100121.00;;;;2087983;28;20952;-47
2021/12/30 04:38:34;;;;;;;3.57;1.70;;;;;19.90;100126.00;;;;2088039;28;20219;-48
2021/12/30 04:39:35;;;;;;;2.07;1.43;;;;;19.90;100124.00;;;;2088183;28;20231;-47
2021/12/30 04:40:35;;;;;;;2.30;1.50;;;;;19.90;100122.00;;;;2086987;28;20209;-47
2021/12/30 04:41:35;;;;;;;3.30;1.70;;;;;19.90;100126.00;;;;2087921;28;20220;-47
2021/12/30 04:42:36;;;;;;;1.90;1.50;;;;;19.90;100133.00;;;;2087848;28;20209;-47
2021/12/30 04:43:36;;;;;;;2.20;1.57;;;;;19.90;100128.00;;;;2088097;28;20209;-47
2021/12/30 04:44:36;;;;;;;2.20;1.73;;;;;19.90;100122.00;;;;2087999;28;20338;-47
2021/12/30 04:45:37;;;;;;;2.63;1.90;;;;;19.90;100138.00;;;;2087847;28;20212;-48
2021/12/30 04:46:38;;;;;;;1.80;1.50;;;;;19.90;100123.00;;;;2088095;28;20219;-47
2021/12/30 04:47:40;;;;;;;2.33;1.70;;;;;19.90;100126.00;;;;2087554;28;20225;-51
2021/12/30 04:48:40;;;;;;;2.78;1.65;;;;;19.90;100129.00;;;;2087892;28;20251;-47
2021/12/30 04:49:41;;;;;;;1.80;1.50;;;;;19.90;100122.00;;;;2088047;28;20205;-47
2021/12/30 04:50:41;;;;;;;2.60;1.90;;;;;19.90;100119.00;;;;2086550;28;20220;-47
2021/12/30 04:51:42;;;;;;;2.93;1.70;;;;;19.90;100122.00;;;;2087909;28;20209;-47
2021/12/30 04:52:42;;;;;;;2.10;1.57;;;;;19.90;100111.00;;;;2088014;28;20601;-47
2021/12/30 04:53:43;;;;;;;3.53;1.63;;;;;19.90;100122.00;;;;2088031;28;20213;-47
2021/12/30 04:54:43;;;;;;;2.23;1.50;;;;;19.90;100116.00;;;;2086468;28;20240;-47
2021/12/30 04:55:44;;;;;;;2.70;1.60;;;;;19.90;100115.00;;;;2087040;28;20547;-47
2021/12/30 04:56:44;;;;;;;4.10;1.87;;;;;19.90;100116.00;;;;2086931;28;20643;-47
2021/12/30 04:57:44;;;;;;;2.43;1.53;;;;;19.90;100118.00;;;;2087247;28;20221;-47
2021/12/30 04:58:45;;;;;;;2.27;1.50;;;;;19.90;100120.00;;;;2087654;28;20217;-47
2021/12/30 04:59:45;;;;;;;2.27;1.40;;;;;19.90;100122.00;;;;2087510;28;20278;-47
2021/12/30 05:00:45;;;;;;;1.87;1.20;;;;;19.80;100117.00;;;;2086415;28;20209;-47
2021/12/30 05:01:46;;;;;;;2.00;1.20;;;;;19.90;100120.00;;;;2087158;28;20294;-47